KAUW/AUW METAR and TAF weather

Enter ICAO airport designator
Station Type Date Time Source
KAUW METAR 2018/10/19 16:13 UTC NOAA

KAUW 191613Z AUTO 23011G23KT 5SM -RA BR OVC013 09/08 A2976 RMK AO2 PK WND 23026/1601 P0001 T00940078 TSNO


Station Type Date Time Source
KAUW Decoded METAR 2018/10/19 16:13 UTC NOAA

WAUSAU DOWNTOWN AIRPORT, WI, United States (KAUW) 44-56N 089-37W 362M
Oct 19, 2018 - 12:13 PM EDT / 2018.10.19 1613 UTC
Wind: from the SW (230 degrees) at 13 MPH (11 KT) gusting to 26 MPH (23 KT):0
Visibility: 5 mile(s):0
Sky conditions: overcast
Weather: light rain; mist
Precipitation last hour: 0.01 inches
Temperature: 48.9 F (9.4 C)
Dew Point: 46.0 F (7.8 C)
Relative Humidity: 89%
Pressure (altimeter): 29.76 in. Hg (1007 hPa)
ob: KAUW 191613Z AUTO 23011G23KT 5SM -RA BR OVC013 09/08 A2976 RMK AO2 PK WND 23026/1601 P0001 T00940078 TSNO
cycle: 16

Station Type Date Time Source
KAUW TAF 2018/10/19 16:46 UTC NOAA

TAF
AMD KAUW 191544Z 1916/2012 24010KT P6SM -SHRA BKN012 OVC030
FM191800 24014G24KT P6SM BKN020 OVC040
FM192200 29012G19KT P6SM SCT050 WS015/32040KT
TEMPO 2010/2012 4SM -SHSN BKN040 OVC080


Example: see airport list